PWSweather.com
Personal Weather Stations
Station Observations
K4FB1
Clubhouse Heritage, Lakeland, FL 33812

Clubhouse HeritageLakeland, FL 33812

Lat: 27.969224, Lon: -81.897769

Elevation: 145

Station Type: Davis Vantage Pro2

http://www.ClubhouseWX.com

Latest ConditionsUpdated 12:00:00 PM EDT Friday, May 22, 2015
Currently Today's Max Today's Min Today's Average
Temperature 93.3°F34.1°C 93.3°F34.1°C 72.4°F22.4°C 78.6°F25.9°C
Dew Point 73.6°F23.1°C 76.3°F24.6°C 69.9°F21.1°C 72.3°F22.4°C
Winds 3.0 mph N4.8 kmh N 5.0 mph NW8.0 kmh NW - 1.6 mph 2.6 kmh
Wind Gusts 10.0 mph16.1 kmh 10.0 mph16.1 kmh - -
Humidity 53% 94% 53% 82%
Pressure 30.08 in1018.6 mb 30.08 in1018.6 mb 29.99 in1015.6 mb -
Hour Temp Dew Point Humidity Winds Wind Gusts Pressure Precip Precip Rate Daily Precip Total
12:00 PM 93.3°F34.1°C 73.6°F23.1°C 53% 3.0 mph N4.8 kmh N 10.0 mph16.1 kmh 30.08 in1018.6 mb 0.00 in0.0 mm 0.00 in0.0 mm 0.00 in0.0 mm
11:55 AM 93.2°F34.0°C 74.1°F23.4°C 54% 4.0 mph NNW6.4 kmh NNW 8.0 mph12.9 kmh 30.08 in1018.6 mb 0.00 in0.0 mm 0.00 in0.0 mm 0.00 in0.0 mm
11:50 AM 92.7°F33.7°C 73.6°F23.1°C 54% 4.0 mph NNW6.4 kmh NNW 8.0 mph12.9 kmh 30.08 in1018.6 mb 0.00 in0.0 mm 0.00 in0.0 mm 0.00 in0.0 mm
11:45 AM 92.5°F33.6°C 73.4°F23.0°C 54% 5.0 mph NW8.0 kmh NW 8.0 mph12.9 kmh 30.08 in1018.6 mb 0.00 in0.0 mm 0.00 in0.0 mm 0.00 in0.0 mm
11:40 AM 92.0°F33.3°C 74.1°F23.4°C 56% 4.0 mph NW6.4 kmh NW 9.0 mph14.5 kmh 30.08 in1018.6 mb 0.00 in0.0 mm 0.00 in0.0 mm 0.00 in0.0 mm
11:35 AM 91.1°F32.8°C 73.7°F23.2°C 57% 3.0 mph N4.8 kmh N 9.0 mph14.5 kmh 30.08 in1018.6 mb 0.00 in0.0 mm 0.00 in0.0 mm 0.00 in0.0 mm
11:30 AM 90.6°F32.6°C 73.3°F22.9°C 57% 3.0 mph NE4.8 kmh NE 7.0 mph11.3 kmh 30.08 in1018.6 mb 0.00 in0.0 mm 0.00 in0.0 mm 0.00 in0.0 mm
11:25 AM 90.6°F32.6°C 72.8°F22.7°C 56% 3.0 mph NE4.8 kmh NE 7.0 mph11.3 kmh 30.08 in1018.6 mb 0.00 in0.0 mm 0.00 in0.0 mm 0.00 in0.0 mm
11:20 AM 90.3°F32.4°C 73.0°F22.8°C 57% 3.0 mph NNE4.8 kmh NNE 8.0 mph12.9 kmh 30.08 in1018.6 mb 0.00 in0.0 mm 0.00 in0.0 mm 0.00 in0.0 mm
11:15 AM 90.0°F32.2°C 73.2°F22.9°C 58% 3.0 mph NNE4.8 kmh NNE 8.0 mph12.9 kmh 30.08 in1018.6 mb 0.00 in0.0 mm 0.00 in0.0 mm 0.00 in0.0 mm
11:10 AM 89.6°F32.0°C 72.3°F22.4°C 57% 4.0 mph NE6.4 kmh NE 10.0 mph16.1 kmh 30.08 in1018.6 mb 0.00 in0.0 mm 0.00 in0.0 mm 0.00 in0.0 mm
11:05 AM 89.5°F31.9°C 72.3°F22.4°C 57% 4.0 mph NNE6.4 kmh NNE 10.0 mph16.1 kmh 30.08 in1018.6 mb 0.00 in0.0 mm 0.00 in0.0 mm 0.00 in0.0 mm
11:00 AM 89.7°F32.1°C 73.0°F22.8°C 58% 3.0 mph NNE4.8 kmh NNE 7.0 mph11.3 kmh 30.08 in1018.6 mb 0.00 in0.0 mm 0.00 in0.0 mm 0.00 in0.0 mm
10:55 AM 89.5°F31.9°C 72.3°F22.4°C 57% 4.0 mph NNE6.4 kmh NNE 7.0 mph11.3 kmh 30.08 in1018.6 mb 0.00 in0.0 mm 0.00 in0.0 mm 0.00 in0.0 mm
10:50 AM 89.1°F31.7°C 72.4°F22.4°C 58% 4.0 mph NNE6.4 kmh NNE 9.0 mph14.5 kmh 30.07 in1018.3 mb 0.00 in0.0 mm 0.00 in0.0 mm 0.00 in0.0 mm
10:45 AM 89.0°F31.7°C 72.8°F22.7°C 59% 3.0 mph N4.8 kmh N 9.0 mph14.5 kmh 30.07 in1018.3 mb 0.00 in0.0 mm 0.00 in0.0 mm 0.00 in0.0 mm
10:40 AM 88.6°F31.4°C 73.4°F23.0°C 61% 3.0 mph NNE4.8 kmh NNE 8.0 mph12.9 kmh 30.08 in1018.6 mb 0.00 in0.0 mm 0.00 in0.0 mm 0.00 in0.0 mm
10:35 AM 88.2°F31.2°C 73.0°F22.8°C 61% 3.0 mph NNE4.8 kmh NNE 8.0 mph12.9 kmh 30.08 in1018.6 mb 0.00 in0.0 mm 0.00 in0.0 mm 0.00 in0.0 mm
10:30 AM 88.3°F31.3°C 72.2°F22.3°C 59% 3.0 mph NNE4.8 kmh NNE 7.0 mph11.3 kmh 30.07 in1018.3 mb 0.00 in0.0 mm 0.00 in0.0 mm 0.00 in0.0 mm
10:25 AM 87.6°F30.9°C 73.4°F23.0°C 63% 3.0 mph NE4.8 kmh NE 7.0 mph11.3 kmh 30.07 in1018.3 mb 0.00 in0.0 mm 0.00 in0.0 mm 0.00 in0.0 mm
10:20 AM 87.6°F30.9°C 73.0°F22.8°C 62% 3.0 mph NE4.8 kmh NE 7.0 mph11.3 kmh 30.08 in1018.6 mb 0.00 in0.0 mm 0.00 in0.0 mm 0.00 in0.0 mm
10:15 AM 87.5°F30.8°C 72.4°F22.4°C 61% 2.0 mph NE3.2 kmh NE 6.0 mph9.7 kmh 30.07 in1018.3 mb 0.00 in0.0 mm 0.00 in0.0 mm 0.00 in0.0 mm
10:10 AM 87.3°F30.7°C 73.2°F22.9°C 63% 3.0 mph N4.8 kmh N 7.0 mph11.3 kmh 30.07 in1018.3 mb 0.00 in0.0 mm 0.00 in0.0 mm 0.00 in0.0 mm
10:05 AM 86.6°F30.3°C 73.4°F23.0°C 65% 3.0 mph NNE4.8 kmh NNE 8.0 mph12.9 kmh 30.07 in1018.3 mb 0.00 in0.0 mm 0.00 in0.0 mm 0.00 in0.0 mm
10:00 AM 86.0°F30.0°C 73.3°F22.9°C 66% 4.0 mph NE6.4 kmh NE 9.0 mph14.5 kmh 30.07 in1018.3 mb 0.00 in0.0 mm 0.00 in0.0 mm 0.00 in0.0 mm
09:55 AM 85.6°F29.8°C 72.9°F22.7°C 66% 4.0 mph ENE6.4 kmh ENE 9.0 mph14.5 kmh 30.07 in1018.3 mb 0.00 in0.0 mm 0.00 in0.0 mm 0.00 in0.0 mm
09:50 AM 85.9°F29.9°C 72.8°F22.7°C 65% 4.0 mph NE6.4 kmh NE 10.0 mph16.1 kmh 30.07 in1018.3 mb 0.00 in0.0 mm 0.00 in0.0 mm 0.00 in0.0 mm
09:45 AM 85.9°F29.9°C 73.2°F22.9°C 66% 3.0 mph NNE4.8 kmh NNE 10.0 mph16.1 kmh 30.07 in1018.3 mb 0.00 in0.0 mm 0.00 in0.0 mm 0.00 in0.0 mm
09:40 AM 85.9°F29.9°C 74.1°F23.4°C 68% 3.0 mph NE4.8 kmh NE 7.0 mph11.3 kmh 30.07 in1018.3 mb 0.00 in0.0 mm 0.00 in0.0 mm 0.00 in0.0 mm
09:35 AM 85.3°F29.6°C 73.5°F23.1°C 68% 3.0 mph NE4.8 kmh NE 7.0 mph11.3 kmh 30.07 in1018.3 mb 0.00 in0.0 mm 0.00 in0.0 mm 0.00 in0.0 mm
09:30 AM 85.1°F29.5°C 73.8°F23.2°C 69% 3.0 mph NE4.8 kmh NE 6.0 mph9.7 kmh 30.07 in1018.3 mb 0.00 in0.0 mm 0.00 in0.0 mm 0.00 in0.0 mm
09:25 AM 84.9°F29.4°C 73.6°F23.1°C 69% 3.0 mph NE4.8 kmh NE 8.0 mph12.9 kmh 30.07 in1018.3 mb 0.00 in0.0 mm 0.00 in0.0 mm 0.00 in0.0 mm
09:20 AM 84.6°F29.2°C 73.7°F23.2°C 70% 3.0 mph NE4.8 kmh NE 8.0 mph12.9 kmh 30.07 in1018.3 mb 0.00 in0.0 mm 0.00 in0.0 mm 0.00 in0.0 mm
09:15 AM 84.5°F29.2°C 73.2°F22.9°C 69% 3.0 mph NE4.8 kmh NE 8.0 mph12.9 kmh 30.07 in1018.3 mb 0.00 in0.0 mm 0.00 in0.0 mm 0.00 in0.0 mm
09:10 AM 84.5°F29.2°C 73.6°F23.1°C 70% 3.0 mph NE4.8 kmh NE 8.0 mph12.9 kmh 30.07 in1018.3 mb 0.00 in0.0 mm 0.00 in0.0 mm 0.00 in0.0 mm
09:05 AM 84.5°F29.2°C 73.2°F22.9°C 69% 3.0 mph NE4.8 kmh NE 8.0 mph12.9 kmh 30.07 in1018.3 mb 0.00 in0.0 mm 0.00 in0.0 mm 0.00 in0.0 mm
09:00 AM 84.8°F29.3°C 73.5°F23.1°C 69% 3.0 mph NE4.8 kmh NE 7.0 mph11.3 kmh 30.07 in1018.3 mb 0.00 in0.0 mm 0.00 in0.0 mm 0.00 in0.0 mm
08:55 AM 84.7°F29.3°C 73.4°F23.0°C 69% 3.0 mph NNE4.8 kmh NNE 7.0 mph11.3 kmh 30.06 in1017.9 mb 0.00 in0.0 mm 0.00 in0.0 mm 0.00 in0.0 mm
08:50 AM 84.7°F29.3°C 73.8°F23.2°C 70% 3.0 mph NNE4.8 kmh NNE 7.0 mph11.3 kmh 30.06 in1017.9 mb 0.00 in0.0 mm 0.00 in0.0 mm 0.00 in0.0 mm
08:45 AM 84.6°F29.2°C 74.6°F23.7°C 72% 2.0 mph NNE3.2 kmh NNE 5.0 mph8.0 kmh 30.06 in1017.9 mb 0.00 in0.0 mm 0.00 in0.0 mm 0.00 in0.0 mm
08:40 AM 84.2°F29.0°C 75.0°F23.9°C 74% 2.0 mph N3.2 kmh N 6.0 mph9.7 kmh 30.06 in1017.9 mb 0.00 in0.0 mm 0.00 in0.0 mm 0.00 in0.0 mm
08:35 AM 83.7°F28.7°C 75.3°F24.1°C 76% 2.0 mph NNW3.2 kmh NNW 6.0 mph9.7 kmh 30.06 in1017.9 mb 0.00 in0.0 mm 0.00 in0.0 mm 0.00 in0.0 mm
08:30 AM 83.1°F28.4°C 76.3°F24.6°C 80% 2.0 mph NNW3.2 kmh NNW 5.0 mph8.0 kmh 30.06 in1017.9 mb 0.00 in0.0 mm 0.00 in0.0 mm 0.00 in0.0 mm
08:25 AM 82.5°F28.1°C 76.1°F24.5°C 81% 2.0 mph NNW3.2 kmh NNW 5.0 mph8.0 kmh 30.05 in1017.6 mb 0.00 in0.0 mm 0.00 in0.0 mm 0.00 in0.0 mm
08:20 AM 82.0°F27.8°C 76.0°F24.4°C 82% 2.0 mph NW3.2 kmh NW 5.0 mph8.0 kmh 30.05 in1017.6 mb 0.00 in0.0 mm 0.00 in0.0 mm 0.00 in0.0 mm
08:15 AM 81.2°F27.3°C 75.9°F24.4°C 84% 1.0 mph NNW1.6 kmh NNW 5.0 mph8.0 kmh 30.05 in1017.6 mb 0.00 in0.0 mm 0.00 in0.0 mm 0.00 in0.0 mm
08:10 AM 80.4°F26.9°C 75.8°F24.3°C 86% 1.0 mph NNW1.6 kmh NNW 5.0 mph8.0 kmh 30.05 in1017.6 mb 0.00 in0.0 mm 0.00 in0.0 mm 0.00 in0.0 mm
08:05 AM 79.7°F26.5°C 75.8°F24.3°C 88% 1.0 mph NW1.6 kmh NW 5.0 mph8.0 kmh 30.05 in1017.6 mb 0.00 in0.0 mm 0.00 in0.0 mm 0.00 in0.0 mm
08:00 AM 78.8°F26.0°C 75.6°F24.2°C 90% 1.0 mph NW1.6 kmh NW 4.0 mph6.4 kmh 30.05 in1017.6 mb 0.00 in0.0 mm 0.00 in0.0 mm 0.00 in0.0 mm
07:55 AM 77.9°F25.5°C 75.1°F23.9°C 91% 1.0 mph NW1.6 kmh NW 3.0 mph4.8 kmh 30.04 in1017.3 mb 0.00 in0.0 mm 0.00 in0.0 mm 0.00 in0.0 mm
07:50 AM 77.1°F25.1°C 74.6°F23.7°C 92% 1.0 mph N1.6 kmh N 3.0 mph4.8 kmh 30.04 in1017.3 mb 0.00 in0.0 mm 0.00 in0.0 mm 0.00 in0.0 mm
07:45 AM 76.4°F24.7°C 74.2°F23.4°C 93% Calm Calm 3.0 mph4.8 kmh 30.04 in1017.3 mb 0.00 in0.0 mm 0.00 in0.0 mm 0.00 in0.0 mm
07:40 AM 75.6°F24.2°C 73.8°F23.2°C 94% Calm Calm 1.0 mph1.6 kmh 30.04 in1017.3 mb 0.00 in0.0 mm 0.00 in0.0 mm 0.00 in0.0 mm
07:35 AM 74.9°F23.8°C 73.1°F22.8°C 94% Calm Calm 2.0 mph3.2 kmh 30.04 in1017.3 mb 0.00 in0.0 mm 0.00 in0.0 mm 0.00 in0.0 mm
07:30 AM 74.5°F23.6°C 72.7°F22.6°C 94% Calm Calm 2.0 mph3.2 kmh 30.04 in1017.3 mb 0.00 in0.0 mm 0.00 in0.0 mm 0.00 in0.0 mm
07:25 AM 74.2°F23.4°C 72.4°F22.4°C 94% Calm Calm 2.0 mph3.2 kmh 30.04 in1017.3 mb 0.00 in0.0 mm 0.00 in0.0 mm 0.00 in0.0 mm
07:20 AM 73.8°F23.2°C 72.0°F22.2°C 94% Calm Calm 3.0 mph4.8 kmh 30.03 in1016.9 mb 0.00 in0.0 mm 0.00 in0.0 mm 0.00 in0.0 mm
07:15 AM 73.5°F23.1°C 71.7°F22.1°C 94% 1.0 mph S1.6 kmh S 3.0 mph4.8 kmh 30.03 in1016.9 mb 0.00 in0.0 mm 0.00 in0.0 mm 0.00 in0.0 mm
07:10 AM 73.3°F22.9°C 71.5°F21.9°C 94% 1.0 mph S1.6 kmh S 2.0 mph3.2 kmh 30.03 in1016.9 mb 0.00 in0.0 mm 0.00 in0.0 mm 0.00 in0.0 mm
07:05 AM 73.2°F22.9°C 71.4°F21.9°C 94% 1.0 mph S1.6 kmh S 2.0 mph3.2 kmh 30.03 in1016.9 mb 0.00 in0.0 mm 0.00 in0.0 mm 0.00 in0.0 mm
07:00 AM 73.1°F22.8°C 71.3°F21.8°C 94% 1.0 mph S1.6 kmh S 3.0 mph4.8 kmh 30.03 in1016.9 mb 0.00 in0.0 mm 0.00 in0.0 mm 0.00 in0.0 mm
06:55 AM 72.9°F22.7°C 71.1°F21.7°C 94% 1.0 mph S1.6 kmh S 3.0 mph4.8 kmh 30.03 in1016.9 mb 0.00 in0.0 mm 0.00 in0.0 mm 0.00 in0.0 mm
06:50 AM 72.9°F22.7°C 71.1°F21.7°C 94% 1.0 mph NW1.6 kmh NW 3.0 mph4.8 kmh 30.03 in1016.9 mb 0.00 in0.0 mm 0.00 in0.0 mm 0.00 in0.0 mm
06:45 AM 72.9°F22.7°C 71.1°F21.7°C 94% 1.0 mph NW1.6 kmh NW 3.0 mph4.8 kmh 30.02 in1016.6 mb 0.00 in0.0 mm 0.00 in0.0 mm 0.00 in0.0 mm
06:40 AM 72.8°F22.7°C 70.7°F21.5°C 93% 1.0 mph NW1.6 kmh NW 3.0 mph4.8 kmh 30.02 in1016.6 mb 0.00 in0.0 mm 0.00 in0.0 mm 0.00 in0.0 mm
06:35 AM 72.8°F22.7°C 70.7°F21.5°C 93% 1.0 mph NW1.6 kmh NW 3.0 mph4.8 kmh 30.02 in1016.6 mb 0.00 in0.0 mm 0.00 in0.0 mm 0.00 in0.0 mm
06:30 AM 72.8°F22.7°C 70.7°F21.5°C 93% 1.0 mph NW1.6 kmh NW 2.0 mph3.2 kmh 30.02 in1016.6 mb 0.00 in0.0 mm 0.00 in0.0 mm 0.00 in0.0 mm
06:25 AM 72.8°F22.7°C 70.7°F21.5°C 93% 1.0 mph NW1.6 kmh NW 2.0 mph3.2 kmh 30.02 in1016.6 mb 0.00 in0.0 mm 0.00 in0.0 mm 0.00 in0.0 mm
06:20 AM 72.7°F22.6°C 70.6°F21.4°C 93% 1.0 mph NW1.6 kmh NW 2.0 mph3.2 kmh 30.02 in1016.6 mb 0.00 in0.0 mm 0.00 in0.0 mm 0.00 in0.0 mm
06:15 AM 72.6°F22.6°C 70.5°F21.4°C 93% 1.0 mph NW1.6 kmh NW 2.0 mph3.2 kmh 30.02 in1016.6 mb 0.00 in0.0 mm 0.00 in0.0 mm 0.00 in0.0 mm
06:10 AM 72.6°F22.6°C 70.5°F21.4°C 93% 1.0 mph NW1.6 kmh NW 2.0 mph3.2 kmh 30.01 in1016.3 mb 0.00 in0.0 mm 0.00 in0.0 mm 0.00 in0.0 mm
06:05 AM 72.5°F22.5°C 70.4°F21.3°C 93% 1.0 mph NW1.6 kmh NW 2.0 mph3.2 kmh 30.01 in1016.3 mb 0.00 in0.0 mm 0.00 in0.0 mm 0.00 in0.0 mm
06:00 AM 72.5°F22.5°C 70.4°F21.3°C 93% Calm Calm 2.0 mph3.2 kmh 30.01 in1016.3 mb 0.00 in0.0 mm 0.00 in0.0 mm 0.00 in0.0 mm
05:55 AM 72.5°F22.5°C 70.4°F21.3°C 93% Calm Calm 2.0 mph3.2 kmh 30.01 in1016.3 mb 0.00 in0.0 mm 0.00 in0.0 mm 0.00 in0.0 mm
05:50 AM 72.4°F22.4°C 70.3°F21.3°C 93% Calm Calm -- 30.01 in1016.3 mb 0.00 in0.0 mm 0.00 in0.0 mm 0.00 in0.0 mm
05:45 AM 72.4°F22.4°C 70.3°F21.3°C 93% Calm Calm -- 30.00 in1015.9 mb 0.00 in0.0 mm 0.00 in0.0 mm 0.00 in0.0 mm
05:40 AM 72.4°F22.4°C 70.3°F21.3°C 93% Calm Calm -- 30.00 in1015.9 mb 0.00 in0.0 mm 0.00 in0.0 mm 0.00 in0.0 mm
05:35 AM 72.4°F22.4°C 69.9°F21.1°C 92% Calm Calm -- 30.00 in1015.9 mb 0.00 in0.0 mm 0.00 in0.0 mm 0.00 in0.0 mm
05:30 AM 72.5°F22.5°C 70.0°F21.1°C 92% Calm Calm -- 30.00 in1015.9 mb 0.00 in0.0 mm 0.00 in0.0 mm 0.00 in0.0 mm
05:25 AM 72.6°F22.6°C 70.1°F21.2°C 92% Calm Calm -- 30.00 in1015.9 mb 0.00 in0.0 mm 0.00 in0.0 mm 0.00 in0.0 mm
05:20 AM 72.7°F22.6°C 70.2°F21.2°C 92% Calm Calm -- 30.00 in1015.9 mb 0.00 in0.0 mm 0.00 in0.0 mm 0.00 in0.0 mm
05:15 AM 72.8°F22.7°C 70.3°F21.3°C 92% Calm Calm -- 30.00 in1015.9 mb 0.00 in0.0 mm 0.00 in0.0 mm 0.00 in0.0 mm
05:10 AM 73.0°F22.8°C 70.5°F21.4°C 92% Calm Calm -- 30.00 in1015.9 mb 0.00 in0.0 mm 0.00 in0.0 mm 0.00 in0.0 mm
05:05 AM 73.1°F22.8°C 70.6°F21.4°C 92% Calm Calm -- 30.00 in1015.9 mb 0.00 in0.0 mm 0.00 in0.0 mm 0.00 in0.0 mm
05:00 AM 73.3°F22.9°C 70.8°F21.6°C 92% Calm Calm -- 30.00 in1015.9 mb 0.00 in0.0 mm 0.00 in0.0 mm 0.00 in0.0 mm
04:55 AM 73.4°F23.0°C 70.9°F21.6°C 92% Calm Calm -- 30.00 in1015.9 mb 0.00 in0.0 mm 0.00 in0.0 mm 0.00 in0.0 mm
04:50 AM 73.5°F23.1°C 71.0°F21.7°C 92% Calm Calm -- 30.00 in1015.9 mb 0.00 in0.0 mm 0.00 in0.0 mm 0.00 in0.0 mm
04:45 AM 73.7°F23.2°C 71.2°F21.8°C 92% Calm Calm -- 30.00 in1015.9 mb 0.00 in0.0 mm 0.00 in0.0 mm 0.00 in0.0 mm
04:40 AM 73.8°F23.2°C 71.3°F21.8°C 92% Calm Calm 2.0 mph3.2 kmh 30.00 in1015.9 mb 0.00 in0.0 mm 0.00 in0.0 mm 0.00 in0.0 mm
04:35 AM 74.0°F23.3°C 71.5°F21.9°C 92% Calm Calm 2.0 mph3.2 kmh 30.00 in1015.9 mb 0.00 in0.0 mm 0.00 in0.0 mm 0.00 in0.0 mm
04:30 AM 74.0°F23.3°C 71.2°F21.8°C 91% Calm Calm 1.0 mph1.6 kmh 30.00 in1015.9 mb 0.00 in0.0 mm 0.00 in0.0 mm 0.00 in0.0 mm
04:25 AM 74.2°F23.4°C 71.7°F22.1°C 92% Calm Calm 1.0 mph1.6 kmh 30.00 in1015.9 mb 0.00 in0.0 mm 0.00 in0.0 mm 0.00 in0.0 mm
04:20 AM 74.3°F23.5°C 71.5°F21.9°C 91% Calm Calm 2.0 mph3.2 kmh 29.99 in1015.6 mb 0.00 in0.0 mm 0.00 in0.0 mm 0.00 in0.0 mm
04:15 AM 74.4°F23.6°C 71.6°F22.0°C 91% Calm Calm 2.0 mph3.2 kmh 29.99 in1015.6 mb 0.00 in0.0 mm 0.00 in0.0 mm 0.00 in0.0 mm
04:10 AM 74.5°F23.6°C 71.7°F22.1°C 91% Calm Calm 2.0 mph3.2 kmh 30.00 in1015.9 mb 0.00 in0.0 mm 0.00 in0.0 mm 0.00 in0.0 mm
04:05 AM 74.6°F23.7°C 71.8°F22.1°C 91% 1.0 mph NW1.6 kmh NW 2.0 mph3.2 kmh 29.99 in1015.6 mb 0.00 in0.0 mm 0.00 in0.0 mm 0.00 in0.0 mm
04:00 AM 74.6°F23.7°C 71.8°F22.1°C 91% 1.0 mph NW1.6 kmh NW 3.0 mph4.8 kmh 29.99 in1015.6 mb 0.00 in0.0 mm 0.00 in0.0 mm 0.00 in0.0 mm
03:55 AM 74.7°F23.7°C 71.9°F22.2°C 91% 1.0 mph NW1.6 kmh NW 3.0 mph4.8 kmh 29.99 in1015.6 mb 0.00 in0.0 mm 0.00 in0.0 mm 0.00 in0.0 mm
03:50 AM 74.8°F23.8°C 72.0°F22.2°C 91% 1.0 mph NW1.6 kmh NW 3.0 mph4.8 kmh 30.00 in1015.9 mb 0.00 in0.0 mm 0.00 in0.0 mm 0.00 in0.0 mm
03:45 AM 74.8°F23.8°C 72.0°F22.2°C 91% 1.0 mph NW1.6 kmh NW 3.0 mph4.8 kmh 29.99 in1015.6 mb 0.00 in0.0 mm 0.00 in0.0 mm 0.00 in0.0 mm
03:40 AM 74.9°F23.8°C 72.1°F22.3°C 91% 1.0 mph NW1.6 kmh NW 3.0 mph4.8 kmh 29.99 in1015.6 mb 0.00 in0.0 mm 0.00 in0.0 mm 0.00 in0.0 mm
03:35 AM 74.9°F23.8°C 72.1°F22.3°C 91% 1.0 mph NW1.6 kmh NW 4.0 mph6.4 kmh 29.99 in1015.6 mb 0.00 in0.0 mm 0.00 in0.0 mm 0.00 in0.0 mm
03:30 AM 74.9°F23.8°C 72.1°F22.3°C 91% 2.0 mph NW3.2 kmh NW 4.0 mph6.4 kmh 29.99 in1015.6 mb 0.00 in0.0 mm 0.00 in0.0 mm 0.00 in0.0 mm
03:25 AM 74.9°F23.8°C 72.1°F22.3°C 91% 2.0 mph NW3.2 kmh NW 6.0 mph9.7 kmh 29.99 in1015.6 mb 0.00 in0.0 mm 0.00 in0.0 mm 0.00 in0.0 mm
03:20 AM 74.9°F23.8°C 72.1°F22.3°C 91% 2.0 mph WNW3.2 kmh WNW 6.0 mph9.7 kmh 29.99 in1015.6 mb 0.00 in0.0 mm 0.00 in0.0 mm 0.00 in0.0 mm
03:15 AM 74.9°F23.8°C 72.1°F22.3°C 91% 2.0 mph WNW3.2 kmh WNW 5.0 mph8.0 kmh 29.99 in1015.6 mb 0.00 in0.0 mm 0.00 in0.0 mm 0.00 in0.0 mm
03:10 AM 74.9°F23.8°C 72.1°F22.3°C 91% 2.0 mph NW3.2 kmh NW 5.0 mph8.0 kmh 29.99 in1015.6 mb 0.00 in0.0 mm 0.00 in0.0 mm 0.00 in0.0 mm
03:05 AM 74.9°F23.8°C 72.1°F22.3°C 91% 2.0 mph NW3.2 kmh NW 5.0 mph8.0 kmh 29.99 in1015.6 mb 0.00 in0.0 mm 0.00 in0.0 mm 0.00 in0.0 mm
03:00 AM 74.9°F23.8°C 72.1°F22.3°C 91% 1.0 mph NW1.6 kmh NW 3.0 mph4.8 kmh 29.99 in1015.6 mb 0.00 in0.0 mm 0.00 in0.0 mm 0.00 in0.0 mm
02:55 AM 74.9°F23.8°C 71.8°F22.1°C 90% 1.0 mph NW1.6 kmh NW 2.0 mph3.2 kmh 29.99 in1015.6 mb 0.00 in0.0 mm 0.00 in0.0 mm 0.00 in0.0 mm
02:50 AM 74.9°F23.8°C 71.8°F22.1°C 90% Calm Calm 3.0 mph4.8 kmh 29.99 in1015.6 mb 0.00 in0.0 mm 0.00 in0.0 mm 0.00 in0.0 mm
02:45 AM 75.0°F23.9°C 71.9°F22.2°C 90% 1.0 mph NW1.6 kmh NW 3.0 mph4.8 kmh 29.99 in1015.6 mb 0.00 in0.0 mm 0.00 in0.0 mm 0.00 in0.0 mm
02:40 AM 75.1°F23.9°C 72.0°F22.2°C 90% 1.0 mph NW1.6 kmh NW 4.0 mph6.4 kmh 29.99 in1015.6 mb 0.00 in0.0 mm 0.00 in0.0 mm 0.00 in0.0 mm
02:35 AM 75.1°F23.9°C 72.0°F22.2°C 90% 1.0 mph NW1.6 kmh NW 4.0 mph6.4 kmh 29.99 in1015.6 mb 0.00 in0.0 mm 0.00 in0.0 mm 0.00 in0.0 mm
02:30 AM 75.1°F23.9°C 72.0°F22.2°C 90% 1.0 mph NW1.6 kmh NW 3.0 mph4.8 kmh 29.99 in1015.6 mb 0.00 in0.0 mm 0.00 in0.0 mm 0.00 in0.0 mm
02:25 AM 75.2°F24.0°C 72.1°F22.3°C 90% 1.0 mph NW1.6 kmh NW 3.0 mph4.8 kmh 30.00 in1015.9 mb 0.00 in0.0 mm 0.00 in0.0 mm 0.00 in0.0 mm
02:20 AM 75.2°F24.0°C 72.1°F22.3°C 90% 1.0 mph NW1.6 kmh NW 3.0 mph4.8 kmh 29.99 in1015.6 mb 0.00 in0.0 mm 0.00 in0.0 mm 0.00 in0.0 mm
02:15 AM 75.3°F24.1°C 72.2°F22.3°C 90% 1.0 mph NW1.6 kmh NW 5.0 mph8.0 kmh 30.00 in1015.9 mb 0.00 in0.0 mm 0.00 in0.0 mm 0.00 in0.0 mm
02:10 AM 75.3°F24.1°C 72.2°F22.3°C 90% 2.0 mph NW3.2 kmh NW 5.0 mph8.0 kmh 29.99 in1015.6 mb 0.00 in0.0 mm 0.00 in0.0 mm 0.00 in0.0 mm
02:05 AM 75.3°F24.1°C 72.2°F22.3°C 90% 2.0 mph NW3.2 kmh NW 5.0 mph8.0 kmh 30.00 in1015.9 mb 0.00 in0.0 mm 0.00 in0.0 mm 0.00 in0.0 mm
02:00 AM 75.3°F24.1°C 71.8°F22.1°C 89% 2.0 mph WNW3.2 kmh WNW 4.0 mph6.4 kmh 30.00 in1015.9 mb 0.00 in0.0 mm 0.00 in0.0 mm 0.00 in0.0 mm
01:55 AM 75.3°F24.1°C 71.8°F22.1°C 89% 2.0 mph WNW3.2 kmh WNW 4.0 mph6.4 kmh 30.00 in1015.9 mb 0.00 in0.0 mm 0.00 in0.0 mm 0.00 in0.0 mm
01:50 AM 75.3°F24.1°C 71.8°F22.1°C 89% 2.0 mph WNW3.2 kmh WNW 4.0 mph6.4 kmh 30.00 in1015.9 mb 0.00 in0.0 mm 0.00 in0.0 mm 0.00 in0.0 mm
01:45 AM 75.3°F24.1°C 71.8°F22.1°C 89% 1.0 mph WNW1.6 kmh WNW 4.0 mph6.4 kmh 30.00 in1015.9 mb 0.00 in0.0 mm 0.00 in0.0 mm 0.00 in0.0 mm
01:40 AM 75.3°F24.1°C 71.8°F22.1°C 89% 2.0 mph WNW3.2 kmh WNW 5.0 mph8.0 kmh 30.00 in1015.9 mb 0.00 in0.0 mm 0.00 in0.0 mm 0.00 in0.0 mm
01:35 AM 75.3°F24.1°C 71.8°F22.1°C 89% 2.0 mph NW3.2 kmh NW 5.0 mph8.0 kmh 30.00 in1015.9 mb 0.00 in0.0 mm 0.00 in0.0 mm 0.00 in0.0 mm
01:30 AM 75.3°F24.1°C 71.5°F21.9°C 88% 1.0 mph NW1.6 kmh NW 4.0 mph6.4 kmh 30.00 in1015.9 mb 0.00 in0.0 mm 0.00 in0.0 mm 0.00 in0.0 mm
01:25 AM 75.4°F24.1°C 71.6°F22.0°C 88% Calm Calm 3.0 mph4.8 kmh 30.00 in1015.9 mb 0.00 in0.0 mm 0.00 in0.0 mm 0.00 in0.0 mm
01:20 AM 75.5°F24.2°C 71.7°F22.1°C 88% 1.0 mph WNW1.6 kmh WNW 3.0 mph4.8 kmh 30.00 in1015.9 mb 0.00 in0.0 mm 0.00 in0.0 mm 0.00 in0.0 mm
01:15 AM 75.5°F24.2°C 71.7°F22.1°C 88% 1.0 mph W1.6 kmh W 4.0 mph6.4 kmh 30.00 in1015.9 mb 0.00 in0.0 mm 0.00 in0.0 mm 0.00 in0.0 mm
01:10 AM 75.6°F24.2°C 71.8°F22.1°C 88% 2.0 mph W3.2 kmh W 4.0 mph6.4 kmh 30.00 in1015.9 mb 0.00 in0.0 mm 0.00 in0.0 mm 0.00 in0.0 mm
01:05 AM 75.7°F24.3°C 71.6°F22.0°C 87% 1.0 mph W1.6 kmh W 4.0 mph6.4 kmh 30.00 in1015.9 mb 0.00 in0.0 mm 0.00 in0.0 mm 0.00 in0.0 mm
01:00 AM 75.7°F24.3°C 71.6°F22.0°C 87% 1.0 mph W1.6 kmh W 3.0 mph4.8 kmh 30.00 in1015.9 mb 0.00 in0.0 mm 0.00 in0.0 mm 0.00 in0.0 mm
12:55 AM 75.8°F24.3°C 71.7°F22.1°C 87% 1.0 mph WNW1.6 kmh WNW 3.0 mph4.8 kmh 30.00 in1015.9 mb 0.00 in0.0 mm 0.00 in0.0 mm 0.00 in0.0 mm
12:50 AM 75.9°F24.4°C 71.4°F21.9°C 86% 1.0 mph WNW1.6 kmh WNW 4.0 mph6.4 kmh 30.00 in1015.9 mb 0.00 in0.0 mm 0.00 in0.0 mm 0.00 in0.0 mm
12:45 AM 76.0°F24.4°C 71.5°F21.9°C 86% 2.0 mph WNW3.2 kmh WNW 5.0 mph8.0 kmh 30.00 in1015.9 mb 0.00 in0.0 mm 0.00 in0.0 mm 0.00 in0.0 mm
12:40 AM 76.1°F24.5°C 71.6°F22.0°C 86% 2.0 mph WNW3.2 kmh WNW 5.0 mph8.0 kmh 30.00 in1015.9 mb 0.00 in0.0 mm 0.00 in0.0 mm 0.00 in0.0 mm
12:35 AM 76.2°F24.6°C 71.4°F21.9°C 85% 2.0 mph NW3.2 kmh NW 5.0 mph8.0 kmh 30.00 in1015.9 mb 0.00 in0.0 mm 0.00 in0.0 mm 0.00 in0.0 mm
12:30 AM 76.2°F24.6°C 71.4°F21.9°C 85% 2.0 mph NW3.2 kmh NW 5.0 mph8.0 kmh 30.00 in1015.9 mb 0.00 in0.0 mm 0.00 in0.0 mm 0.00 in0.0 mm
12:25 AM 76.4°F24.7°C 71.6°F22.0°C 85% 2.0 mph WNW3.2 kmh WNW 3.0 mph4.8 kmh 30.00 in1015.9 mb 0.00 in0.0 mm 0.00 in0.0 mm 0.00 in0.0 mm
12:20 AM 76.4°F24.7°C 71.6°F22.0°C 85% 1.0 mph WNW1.6 kmh WNW 4.0 mph6.4 kmh 30.00 in1015.9 mb 0.00 in0.0 mm 0.00 in0.0 mm 0.00 in0.0 mm
12:15 AM 76.6°F24.8°C 71.4°F21.9°C 84% 2.0 mph WNW3.2 kmh WNW 4.0 mph6.4 kmh 30.00 in1015.9 mb 0.00 in0.0 mm 0.00 in0.0 mm 0.00 in0.0 mm
12:10 AM 76.6°F24.8°C 71.4°F21.9°C 84% 2.0 mph WNW3.2 kmh WNW 5.0 mph8.0 kmh 30.00 in1015.9 mb 0.00 in0.0 mm 0.00 in0.0 mm 0.00 in0.0 mm
12:05 AM 76.7°F24.8°C 71.5°F21.9°C 84% 2.0 mph WNW3.2 kmh WNW 5.0 mph8.0 kmh 30.00 in1015.9 mb 0.00 in0.0 mm 0.00 in0.0 mm 0.00 in0.0 mm
12:00 AM 76.8°F24.9°C 71.6°F22.0°C 84% 2.0 mph NW3.2 kmh NW 5.0 mph8.0 kmh 30.00 in1015.9 mb 0.00 in0.0 mm 0.00 in0.0 mm 0.00 in0.0 mm